sensor_id;sensor_type;location;lat;lon;timestamp;P1;durP1;ratioP1;P2;durP2;ratioP2
75620;SDS011;64574;48.506;-2.750;2024-02-23T00:01:05;5.57;;;0.93;;
75620;SDS011;64574;48.506;-2.750;2024-02-23T00:03:31;6.80;;;0.70;;
75620;SDS011;64574;48.506;-2.750;2024-02-23T00:05:59;5.65;;;0.75;;
75620;SDS011;64574;48.506;-2.750;2024-02-23T00:08:25;3.13;;;0.63;;
75620;SDS011;64574;48.506;-2.750;2024-02-23T00:10:51;6.20;;;0.68;;
75620;SDS011;64574;48.506;-2.750;2024-02-23T00:13:17;5.60;;;0.80;;
75620;SDS011;64574;48.506;-2.750;2024-02-23T00:15:42;8.52;;;0.80;;
75620;SDS011;64574;48.506;-2.750;2024-02-23T00:18:09;4.65;;;0.75;;
75620;SDS011;64574;48.506;-2.750;2024-02-23T00:20:34;8.27;;;1.05;;
75620;SDS011;64574;48.506;-2.750;2024-02-23T00:23:01;5.35;;;0.80;;
75620;SDS011;64574;48.506;-2.750;2024-02-23T00:25:27;8.73;;;0.77;;
75620;SDS011;64574;48.506;-2.750;2024-02-23T00:27:53;3.45;;;0.68;;
75620;SDS011;64574;48.506;-2.750;2024-02-23T00:30:19;5.75;;;0.60;;
75620;SDS011;64574;48.506;-2.750;2024-02-23T00:32:44;7.57;;;1.25;;
75620;SDS011;64574;48.506;-2.750;2024-02-23T00:35:10;4.25;;;0.68;;
75620;SDS011;64574;48.506;-2.750;2024-02-23T00:37:36;2.60;;;0.65;;
75620;SDS011;64574;48.506;-2.750;2024-02-23T00:40:02;5.85;;;0.70;;
75620;SDS011;64574;48.506;-2.750;2024-02-23T00:42:29;4.40;;;1.20;;
75620;SDS011;64574;48.506;-2.750;2024-02-23T00:44:55;5.22;;;0.95;;
75620;SDS011;64574;48.506;-2.750;2024-02-23T00:47:21;8.27;;;1.08;;
75620;SDS011;64574;48.506;-2.750;2024-02-23T00:49:47;5.43;;;0.73;;
75620;SDS011;64574;48.506;-2.750;2024-02-23T00:52:12;8.50;;;0.60;;
75620;SDS011;64574;48.506;-2.750;2024-02-23T00:54:39;3.50;;;0.50;;
75620;SDS011;64574;48.506;-2.750;2024-02-23T00:57:05;4.15;;;0.55;;
75620;SDS011;64574;48.506;-2.750;2024-02-23T00:59:30;4.32;;;0.77;;
75620;SDS011;64574;48.506;-2.750;2024-02-23T01:01:57;4.28;;;0.40;;
75620;SDS011;64574;48.506;-2.750;2024-02-23T01:04:23;2.33;;;0.70;;
75620;SDS011;64574;48.506;-2.750;2024-02-23T01:06:48;3.92;;;0.60;;
75620;SDS011;64574;48.506;-2.750;2024-02-23T01:09:14;0.85;;;0.30;;
75620;SDS011;64574;48.506;-2.750;2024-02-23T01:14:07;2.75;;;0.57;;
75620;SDS011;64574;48.506;-2.750;2024-02-23T01:16:33;0.95;;;0.20;;
75620;SDS011;64574;48.506;-2.750;2024-02-23T01:18:59;2.83;;;0.50;;
75620;SDS011;64574;48.506;-2.750;2024-02-23T01:21:24;1.55;;;0.25;;
75620;SDS011;64574;48.506;-2.750;2024-02-23T01:23:50;4.15;;;0.30;;
75620;SDS011;64574;48.506;-2.750;2024-02-23T01:26:15;2.33;;;0.43;;
75620;SDS011;64574;48.506;-2.750;2024-02-23T01:28:41;2.38;;;0.40;;
75620;SDS011;64574;48.506;-2.750;2024-02-23T01:31:11;3.20;;;0.75;;
75620;SDS011;64574;48.506;-2.750;2024-02-23T01:33:37;2.13;;;0.35;;
75620;SDS011;64574;48.506;-2.750;2024-02-23T01:36:04;2.17;;;0.50;;
75620;SDS011;64574;48.506;-2.750;2024-02-23T01:38:30;1.75;;;0.35;;
75620;SDS011;64574;48.506;-2.750;2024-02-23T01:40:58;2.83;;;0.52;;
75620;SDS011;64574;48.506;-2.750;2024-02-23T01:43:24;4.38;;;0.40;;
75620;SDS011;64574;48.506;-2.750;2024-02-23T01:45:49;4.07;;;1.00;;
75620;SDS011;64574;48.506;-2.750;2024-02-23T01:48:15;1.38;;;0.35;;
75620;SDS011;64574;48.506;-2.750;2024-02-23T01:50:42;2.70;;;0.43;;
75620;SDS011;64574;48.506;-2.750;2024-02-23T01:53:08;3.60;;;0.40;;
75620;SDS011;64574;48.506;-2.750;2024-02-23T01:55:37;4.15;;;0.50;;
75620;SDS011;64574;48.506;-2.750;2024-02-23T01:58:06;5.50;;;0.70;;
75620;SDS011;64574;48.506;-2.750;2024-02-23T02:00:32;2.95;;;0.63;;
75620;SDS011;64574;48.506;-2.750;2024-02-23T02:02:59;4.97;;;0.68;;
75620;SDS011;64574;48.506;-2.750;2024-02-23T02:05:24;1.38;;;0.50;;
75620;SDS011;64574;48.506;-2.750;2024-02-23T02:07:51;3.25;;;0.60;;
75620;SDS011;64574;48.506;-2.750;2024-02-23T02:10:23;1.58;;;0.40;;
75620;SDS011;64574;48.506;-2.750;2024-02-23T02:12:49;4.25;;;0.77;;
75620;SDS011;64574;48.506;-2.750;2024-02-23T02:15:15;3.25;;;0.60;;
75620;SDS011;64574;48.506;-2.750;2024-02-23T02:17:41;3.80;;;0.55;;
75620;SDS011;64574;48.506;-2.750;2024-02-23T02:20:08;3.63;;;0.35;;
75620;SDS011;64574;48.506;-2.750;2024-02-23T02:22:37;6.22;;;1.10;;
75620;SDS011;64574;48.506;-2.750;2024-02-23T02:25:03;3.78;;;0.45;;
75620;SDS011;64574;48.506;-2.750;2024-02-23T02:27:29;1.70;;;0.43;;
75620;SDS011;64574;48.506;-2.750;2024-02-23T02:29:55;2.55;;;0.70;;
75620;SDS011;64574;48.506;-2.750;2024-02-23T02:32:20;5.93;;;0.73;;
75620;SDS011;64574;48.506;-2.750;2024-02-23T02:34:46;4.85;;;0.93;;
75620;SDS011;64574;48.506;-2.750;2024-02-23T02:37:12;4.97;;;0.73;;
75620;SDS011;64574;48.506;-2.750;2024-02-23T02:39:38;5.68;;;0.68;;
75620;SDS011;64574;48.506;-2.750;2024-02-23T02:42:03;5.60;;;0.63;;
75620;SDS011;64574;48.506;-2.750;2024-02-23T02:44:29;5.25;;;1.08;;
75620;SDS011;64574;48.506;-2.750;2024-02-23T02:46:55;7.63;;;0.85;;
75620;SDS011;64574;48.506;-2.750;2024-02-23T02:49:24;4.65;;;0.65;;
75620;SDS011;64574;48.506;-2.750;2024-02-23T02:51:49;4.35;;;0.95;;
75620;SDS011;64574;48.506;-2.750;2024-02-23T02:54:15;5.22;;;1.02;;
75620;SDS011;64574;48.506;-2.750;2024-02-23T02:56:42;4.60;;;1.13;;
75620;SDS011;64574;48.506;-2.750;2024-02-23T02:59:09;9.90;;;1.20;;
75620;SDS011;64574;48.506;-2.750;2024-02-23T03:01:37;6.45;;;0.85;;
75620;SDS011;64574;48.506;-2.750;2024-02-23T03:04:04;5.18;;;0.70;;
75620;SDS011;64574;48.506;-2.750;2024-02-23T03:06:29;4.97;;;1.05;;
75620;SDS011;64574;48.506;-2.750;2024-02-23T03:08:55;5.05;;;0.98;;
75620;SDS011;64574;48.506;-2.750;2024-02-23T03:11:21;2.97;;;0.47;;
75620;SDS011;64574;48.506;-2.750;2024-02-23T03:13:46;2.25;;;0.32;;
75620;SDS011;64574;48.506;-2.750;2024-02-23T03:16:20;4.72;;;0.70;;
75620;SDS011;64574;48.506;-2.750;2024-02-23T03:18:48;4.45;;;0.45;;
75620;SDS011;64574;48.506;-2.750;2024-02-23T03:21:14;2.05;;;0.60;;
75620;SDS011;64574;48.506;-2.750;2024-02-23T03:23:40;2.72;;;0.38;;
75620;SDS011;64574;48.506;-2.750;2024-02-23T03:26:06;1.92;;;0.40;;
75620;SDS011;64574;48.506;-2.750;2024-02-23T03:28:32;3.40;;;0.50;;
75620;SDS011;64574;48.506;-2.750;2024-02-23T03:30:59;2.72;;;1.00;;
75620;SDS011;64574;48.506;-2.750;2024-02-23T03:33:25;4.68;;;0.40;;
75620;SDS011;64574;48.506;-2.750;2024-02-23T03:35:51;1.90;;;0.40;;
75620;SDS011;64574;48.506;-2.750;2024-02-23T03:38:17;2.88;;;0.60;;
75620;SDS011;64574;48.506;-2.750;2024-02-23T03:40:43;4.80;;;0.60;;
75620;SDS011;64574;48.506;-2.750;2024-02-23T03:43:09;3.63;;;0.52;;
75620;SDS011;64574;48.506;-2.750;2024-02-23T03:45:34;2.45;;;0.30;;
75620;SDS011;64574;48.506;-2.750;2024-02-23T03:48:00;1.52;;;0.20;;
75620;SDS011;64574;48.506;-2.750;2024-02-23T03:50:28;1.92;;;0.40;;
75620;SDS011;64574;48.506;-2.750;2024-02-23T03:52:54;1.25;;;0.10;;
75620;SDS011;64574;48.506;-2.750;2024-02-23T03:55:21;3.60;;;0.30;;
75620;SDS011;64574;48.506;-2.750;2024-02-23T03:57:47;3.25;;;0.82;;
75620;SDS011;64574;48.506;-2.750;2024-02-23T04:00:13;3.10;;;0.40;;
75620;SDS011;64574;48.506;-2.750;2024-02-23T04:02:39;1.50;;;0.20;;
75620;SDS011;64574;48.506;-2.750;2024-02-23T04:05:05;1.75;;;0.35;;
75620;SDS011;64574;48.506;-2.750;2024-02-23T04:07:31;1.13;;;0.30;;
75620;SDS011;64574;48.506;-2.750;2024-02-23T04:09:57;3.70;;;0.30;;
75620;SDS011;64574;48.506;-2.750;2024-02-23T04:12:23;6.30;;;0.63;;
75620;SDS011;64574;48.506;-2.750;2024-02-23T04:14:49;3.15;;;0.52;;
75620;SDS011;64574;48.506;-2.750;2024-02-23T04:17:15;3.08;;;0.30;;
75620;SDS011;64574;48.506;-2.750;2024-02-23T04:19:41;0.32;;;0.20;;
75620;SDS011;64574;48.506;-2.750;2024-02-23T04:22:07;2.15;;;0.13;;
75620;SDS011;64574;48.506;-2.750;2024-02-23T04:24:35;5.35;;;0.75;;
75620;SDS011;64574;48.506;-2.750;2024-02-23T04:27:04;2.80;;;0.40;;
75620;SDS011;64574;48.506;-2.750;2024-02-23T04:29:30;1.30;;;0.40;;
75620;SDS011;64574;48.506;-2.750;2024-02-23T04:31:57;2.20;;;0.40;;
75620;SDS011;64574;48.506;-2.750;2024-02-23T04:34:26;2.80;;;0.30;;
75620;SDS011;64574;48.506;-2.750;2024-02-23T04:36:52;2.50;;;0.30;;
75620;SDS011;64574;48.506;-2.750;2024-02-23T04:39:18;1.15;;;0.30;;
75620;SDS011;64574;48.506;-2.750;2024-02-23T08:22:56;3.10;;;0.70;;
75620;SDS011;64574;48.506;-2.750;2024-02-23T08:25:22;4.32;;;0.70;;
75620;SDS011;64574;48.506;-2.750;2024-02-23T08:27:48;4.70;;;0.68;;
75620;SDS011;64574;48.506;-2.750;2024-02-23T08:30:14;1.08;;;0.32;;
75620;SDS011;64574;48.506;-2.750;2024-02-23T08:32:40;3.92;;;0.55;;
75620;SDS011;64574;48.506;-2.750;2024-02-23T08:35:06;4.60;;;0.70;;
75620;SDS011;64574;48.506;-2.750;2024-02-23T08:37:32;5.07;;;0.73;;
75620;SDS011;64574;48.506;-2.750;2024-02-23T08:39:57;6.03;;;0.50;;
75620;SDS011;64574;48.506;-2.750;2024-02-23T08:42:23;2.30;;;0.60;;
75620;SDS011;64574;48.506;-2.750;2024-02-23T08:44:49;2.55;;;0.52;;
75620;SDS011;64574;48.506;-2.750;2024-02-23T08:47:15;4.22;;;0.70;;
75620;SDS011;64574;48.506;-2.750;2024-02-23T08:49:41;3.47;;;0.80;;
75620;SDS011;64574;48.506;-2.750;2024-02-23T08:52:06;7.35;;;0.80;;
75620;SDS011;64574;48.506;-2.750;2024-02-23T08:54:32;5.85;;;0.90;;
75620;SDS011;64574;48.506;-2.750;2024-02-23T08:56:58;5.63;;;0.68;;
75620;SDS011;64574;48.506;-2.750;2024-02-23T08:59:23;4.03;;;0.80;;
75620;SDS011;64574;48.506;-2.750;2024-02-23T09:01:49;5.73;;;1.27;;
75620;SDS011;64574;48.506;-2.750;2024-02-23T09:04:15;4.95;;;0.90;;
75620;SDS011;64574;48.506;-2.750;2024-02-23T09:06:41;5.80;;;1.33;;
75620;SDS011;64574;48.506;-2.750;2024-02-23T09:09:06;4.53;;;0.98;;
75620;SDS011;64574;48.506;-2.750;2024-02-23T09:11:33;5.70;;;0.90;;
75620;SDS011;64574;48.506;-2.750;2024-02-23T09:13:59;8.90;;;1.20;;
75620;SDS011;64574;48.506;-2.750;2024-02-23T11:31:21;2.47;;;0.50;;
75620;SDS011;64574;48.506;-2.750;2024-02-23T11:33:52;5.63;;;0.60;;
75620;SDS011;64574;48.506;-2.750;2024-02-23T11:36:32;4.32;;;0.50;;
75620;SDS011;64574;48.506;-2.750;2024-02-23T11:39:00;3.72;;;0.70;;
75620;SDS011;64574;48.506;-2.750;2024-02-23T11:41:27;1.50;;;0.40;;
75620;SDS011;64574;48.506;-2.750;2024-02-23T11:43:54;2.42;;;0.63;;
75620;SDS011;64574;48.506;-2.750;2024-02-23T11:46:21;2.80;;;0.50;;
75620;SDS011;64574;48.506;-2.750;2024-02-23T11:48:47;5.55;;;0.90;;
75620;SDS011;64574;48.506;-2.750;2024-02-23T11:51:19;5.15;;;0.73;;
75620;SDS011;64574;48.506;-2.750;2024-02-23T11:53:49;3.92;;;0.60;;
75620;SDS011;64574;48.506;-2.750;2024-02-23T11:56:15;4.75;;;0.77;;
75620;SDS011;64574;48.506;-2.750;2024-02-23T11:58:41;3.35;;;0.52;;
75620;SDS011;64574;48.506;-2.750;2024-02-23T12:01:07;2.70;;;0.50;;
75620;SDS011;64574;48.506;-2.750;2024-02-23T12:03:33;3.03;;;0.60;;
75620;SDS011;64574;48.506;-2.750;2024-02-23T12:05:59;2.65;;;0.60;;
75620;SDS011;64574;48.506;-2.750;2024-02-23T12:08:26;1.75;;;0.60;;
75620;SDS011;64574;48.506;-2.750;2024-02-23T12:10:54;3.10;;;0.45;;
75620;SDS011;64574;48.506;-2.750;2024-02-23T12:13:20;2.13;;;0.40;;
75620;SDS011;64574;48.506;-2.750;2024-02-23T12:15:47;3.65;;;0.52;;
75620;SDS011;64574;48.506;-2.750;2024-02-23T12:18:13;1.27;;;0.43;;
75620;SDS011;64574;48.506;-2.750;2024-02-23T12:20:39;1.95;;;0.30;;
75620;SDS011;64574;48.506;-2.750;2024-02-23T12:23:05;2.10;;;0.82;;
75620;SDS011;64574;48.506;-2.750;2024-02-23T12:25:33;1.52;;;0.30;;
75620;SDS011;64574;48.506;-2.750;2024-02-23T12:27:58;3.20;;;0.52;;
75620;SDS011;64574;48.506;-2.750;2024-02-23T12:30:25;1.75;;;0.40;;
75620;SDS011;64574;48.506;-2.750;2024-02-23T12:33:02;3.13;;;0.70;;
75620;SDS011;64574;48.506;-2.750;2024-02-23T12:35:34;2.40;;;0.60;;
75620;SDS011;64574;48.506;-2.750;2024-02-23T12:38:01;3.67;;;0.70;;
75620;SDS011;64574;48.506;-2.750;2024-02-23T12:40:27;3.78;;;0.52;;
75620;SDS011;64574;48.506;-2.750;2024-02-23T12:42:52;4.40;;;0.88;;
75620;SDS011;64574;48.506;-2.750;2024-02-23T12:45:18;3.30;;;0.98;;
75620;SDS011;64574;48.506;-2.750;2024-02-23T12:47:43;3.95;;;1.02;;
75620;SDS011;64574;48.506;-2.750;2024-02-23T12:50:09;7.40;;;1.70;;
75620;SDS011;64574;48.506;-2.750;2024-02-23T12:52:36;8.60;;;1.98;;
75620;SDS011;64574;48.506;-2.750;2024-02-23T12:55:02;7.05;;;1.40;;
75620;SDS011;64574;48.506;-2.750;2024-02-23T12:57:27;4.57;;;1.10;;
75620;SDS011;64574;48.506;-2.750;2024-02-23T12:59:53;4.15;;;0.90;;
75620;SDS011;64574;48.506;-2.750;2024-02-23T13:02:19;5.80;;;1.25;;
75620;SDS011;64574;48.506;-2.750;2024-02-23T13:04:45;5.97;;;1.33;;
75620;SDS011;64574;48.506;-2.750;2024-02-23T13:07:14;3.35;;;0.80;;
75620;SDS011;64574;48.506;-2.750;2024-02-23T13:09:41;6.00;;;1.25;;
75620;SDS011;64574;48.506;-2.750;2024-02-23T13:12:07;4.95;;;0.98;;
75620;SDS011;64574;48.506;-2.750;2024-02-23T13:14:33;8.80;;;1.50;;
75620;SDS011;64574;48.506;-2.750;2024-02-23T13:16:58;8.35;;;1.10;;
75620;SDS011;64574;48.506;-2.750;2024-02-23T13:19:24;5.85;;;1.08;;
75620;SDS011;64574;48.506;-2.750;2024-02-23T13:21:50;10.10;;;1.33;;
75620;SDS011;64574;48.506;-2.750;2024-02-23T13:24:15;6.47;;;1.10;;
75620;SDS011;64574;48.506;-2.750;2024-02-23T13:26:41;5.75;;;0.95;;
75620;SDS011;64574;48.506;-2.750;2024-02-23T13:29:07;6.93;;;1.10;;
75620;SDS011;64574;48.506;-2.750;2024-02-23T13:31:32;6.95;;;1.08;;
75620;SDS011;64574;48.506;-2.750;2024-02-23T13:33:58;6.13;;;0.85;;
75620;SDS011;64574;48.506;-2.750;2024-02-23T13:36:24;4.25;;;1.05;;
75620;SDS011;64574;48.506;-2.750;2024-02-23T13:58:20;2.75;;;0.60;;
75620;SDS011;64574;48.506;-2.750;2024-02-23T14:54:16;1.70;;;0.63;;
75620;SDS011;64574;48.506;-2.750;2024-02-23T14:56:42;1.92;;;0.50;;
75620;SDS011;64574;48.506;-2.750;2024-02-23T14:59:07;1.73;;;0.60;;
75620;SDS011;64574;48.506;-2.750;2024-02-23T15:01:36;2.97;;;0.95;;
75620;SDS011;64574;48.506;-2.750;2024-02-23T15:04:03;3.95;;;0.80;;
75620;SDS011;64574;48.506;-2.750;2024-02-23T15:06:29;4.35;;;0.75;;
75620;SDS011;64574;48.506;-2.750;2024-02-23T15:08:55;2.13;;;0.60;;
75620;SDS011;64574;48.506;-2.750;2024-02-23T15:11:21;2.22;;;0.60;;
75620;SDS011;64574;48.506;-2.750;2024-02-23T15:13:47;3.63;;;0.95;;
75620;SDS011;64574;48.506;-2.750;2024-02-23T15:16:13;4.13;;;0.60;;
75620;SDS011;64574;48.506;-2.750;2024-02-23T15:18:39;1.67;;;0.65;;
75620;SDS011;64574;48.506;-2.750;2024-02-23T15:21:04;2.38;;;0.80;;
75620;SDS011;64574;48.506;-2.750;2024-02-23T15:23:30;2.05;;;0.50;;
75620;SDS011;64574;48.506;-2.750;2024-02-23T15:25:56;3.53;;;0.90;;
75620;SDS011;64574;48.506;-2.750;2024-02-23T15:28:22;2.20;;;0.40;;
75620;SDS011;64574;48.506;-2.750;2024-02-23T15:30:49;1.08;;;0.30;;
75620;SDS011;64574;48.506;-2.750;2024-02-23T15:33:15;1.27;;;0.40;;
75620;SDS011;64574;48.506;-2.750;2024-02-23T15:35:41;1.25;;;0.20;;
75620;SDS011;64574;48.506;-2.750;2024-02-23T15:38:06;0.77;;;0.40;;
75620;SDS011;64574;48.506;-2.750;2024-02-23T15:40:32;1.67;;;0.43;;
75620;SDS011;64574;48.506;-2.750;2024-02-23T15:42:57;1.05;;;0.30;;
75620;SDS011;64574;48.506;-2.750;2024-02-23T15:45:23;1.15;;;0.40;;
75620;SDS011;64574;48.506;-2.750;2024-02-23T15:47:49;0.85;;;0.50;;
75620;SDS011;64574;48.506;-2.750;2024-02-23T15:50:14;2.03;;;0.70;;
75620;SDS011;64574;48.506;-2.750;2024-02-23T15:52:40;4.20;;;1.05;;
75620;SDS011;64574;48.506;-2.750;2024-02-23T15:55:06;2.33;;;0.85;;
75620;SDS011;64574;48.506;-2.750;2024-02-23T15:57:36;3.78;;;1.20;;
75620;SDS011;64574;48.506;-2.750;2024-02-23T16:00:02;3.45;;;0.90;;
75620;SDS011;64574;48.506;-2.750;2024-02-23T16:02:29;2.63;;;1.05;;
75620;SDS011;64574;48.506;-2.750;2024-02-23T16:04:55;2.63;;;0.93;;
75620;SDS011;64574;48.506;-2.750;2024-02-23T16:07:20;2.10;;;0.50;;
75620;SDS011;64574;48.506;-2.750;2024-02-23T16:09:46;2.85;;;0.55;;
75620;SDS011;64574;48.506;-2.750;2024-02-23T16:12:12;3.25;;;0.70;;
75620;SDS011;64574;48.506;-2.750;2024-02-23T16:14:38;3.47;;;0.73;;
75620;SDS011;64574;48.506;-2.750;2024-02-23T16:17:04;1.25;;;0.50;;
75620;SDS011;64574;48.506;-2.750;2024-02-23T16:19:30;2.35;;;0.60;;
75620;SDS011;64574;48.506;-2.750;2024-02-23T16:21:55;1.88;;;0.80;;
75620;SDS011;64574;48.506;-2.750;2024-02-23T16:24:21;2.15;;;0.52;;
75620;SDS011;64574;48.506;-2.750;2024-02-23T16:26:47;2.58;;;0.57;;
75620;SDS011;64574;48.506;-2.750;2024-02-23T16:29:13;1.98;;;0.70;;
75620;SDS011;64574;48.506;-2.750;2024-02-23T16:31:38;2.55;;;0.82;;
75620;SDS011;64574;48.506;-2.750;2024-02-23T16:34:07;2.60;;;0.50;;
75620;SDS011;64574;48.506;-2.750;2024-02-23T16:36:32;3.05;;;0.80;;
75620;SDS011;64574;48.506;-2.750;2024-02-23T16:38:58;5.32;;;0.90;;
75620;SDS011;64574;48.506;-2.750;2024-02-23T16:41:24;1.95;;;0.65;;
75620;SDS011;64574;48.506;-2.750;2024-02-23T16:43:50;2.90;;;0.80;;
75620;SDS011;64574;48.506;-2.750;2024-02-23T16:46:15;1.65;;;0.60;;
75620;SDS011;64574;48.506;-2.750;2024-02-23T16:48:41;2.10;;;0.60;;
75620;SDS011;64574;48.506;-2.750;2024-02-23T16:51:07;2.00;;;0.68;;
75620;SDS011;64574;48.506;-2.750;2024-02-23T16:53:33;2.60;;;0.60;;
75620;SDS011;64574;48.506;-2.750;2024-02-23T16:55:58;0.90;;;0.52;;
75620;SDS011;64574;48.506;-2.750;2024-02-23T16:58:26;1.58;;;0.75;;
75620;SDS011;64574;48.506;-2.750;2024-02-23T17:01:00;1.27;;;0.50;;
75620;SDS011;64574;48.506;-2.750;2024-02-23T17:03:27;1.65;;;0.50;;
75620;SDS011;64574;48.506;-2.750;2024-02-23T17:05:52;4.05;;;0.90;;
75620;SDS011;64574;48.506;-2.750;2024-02-23T17:08:18;1.60;;;0.50;;
75620;SDS011;64574;48.506;-2.750;2024-02-23T17:10:44;1.00;;;0.40;;
75620;SDS011;64574;48.506;-2.750;2024-02-23T17:13:12;2.10;;;0.80;;
75620;SDS011;64574;48.506;-2.750;2024-02-23T17:15:37;2.25;;;0.82;;
75620;SDS011;64574;48.506;-2.750;2024-02-23T17:18:04;1.85;;;0.75;;
75620;SDS011;64574;48.506;-2.750;2024-02-23T17:20:30;1.15;;;0.68;;
75620;SDS011;64574;48.506;-2.750;2024-02-23T17:22:58;2.25;;;0.80;;
75620;SDS011;64574;48.506;-2.750;2024-02-23T17:25:24;1.27;;;0.82;;
75620;SDS011;64574;48.506;-2.750;2024-02-23T17:27:50;5.13;;;1.83;;
75620;SDS011;64574;48.506;-2.750;2024-02-23T17:30:17;3.30;;;1.80;;
75620;SDS011;64574;48.506;-2.750;2024-02-23T17:32:43;4.90;;;1.52;;
75620;SDS011;64574;48.506;-2.750;2024-02-23T17:35:09;2.70;;;1.10;;
75620;SDS011;64574;48.506;-2.750;2024-02-23T17:37:35;1.55;;;0.70;;
75620;SDS011;64574;48.506;-2.750;2024-02-23T17:40:01;1.90;;;0.85;;
75620;SDS011;64574;48.506;-2.750;2024-02-23T17:42:27;2.28;;;0.90;;
75620;SDS011;64574;48.506;-2.750;2024-02-23T17:44:53;2.45;;;1.27;;
75620;SDS011;64574;48.506;-2.750;2024-02-23T17:47:19;3.13;;;0.93;;
75620;SDS011;64574;48.506;-2.750;2024-02-23T17:49:45;2.40;;;1.20;;
75620;SDS011;64574;48.506;-2.750;2024-02-23T17:52:12;3.08;;;1.58;;
75620;SDS011;64574;48.506;-2.750;2024-02-23T17:54:39;5.18;;;2.00;;
75620;SDS011;64574;48.506;-2.750;2024-02-23T17:57:05;4.10;;;2.00;;
75620;SDS011;64574;48.506;-2.750;2024-02-23T17:59:31;7.40;;;1.67;;
75620;SDS011;64574;48.506;-2.750;2024-02-23T18:01:56;3.97;;;1.13;;
75620;SDS011;64574;48.506;-2.750;2024-02-23T18:04:22;4.78;;;1.33;;
75620;SDS011;64574;48.506;-2.750;2024-02-23T18:06:48;2.78;;;1.42;;
75620;SDS011;64574;48.506;-2.750;2024-02-23T18:09:18;3.67;;;1.67;;
75620;SDS011;64574;48.506;-2.750;2024-02-23T18:11:45;4.00;;;1.88;;
75620;SDS011;64574;48.506;-2.750;2024-02-23T18:14:12;5.75;;;2.25;;
75620;SDS011;64574;48.506;-2.750;2024-02-23T18:16:39;3.55;;;1.80;;
75620;SDS011;64574;48.506;-2.750;2024-02-23T18:19:05;4.30;;;1.33;;
75620;SDS011;64574;48.506;-2.750;2024-02-23T18:21:31;5.97;;;1.20;;
75620;SDS011;64574;48.506;-2.750;2024-02-23T18:23:56;4.20;;;1.23;;
75620;SDS011;64574;48.506;-2.750;2024-02-23T18:26:22;6.00;;;1.35;;
75620;SDS011;64574;48.506;-2.750;2024-02-23T18:28:48;3.53;;;1.23;;
75620;SDS011;64574;48.506;-2.750;2024-02-23T18:31:17;2.28;;;1.17;;
75620;SDS011;64574;48.506;-2.750;2024-02-23T18:33:44;3.58;;;1.17;;
75620;SDS011;64574;48.506;-2.750;2024-02-23T18:36:10;5.15;;;1.77;;
75620;SDS011;64574;48.506;-2.750;2024-02-23T18:38:39;6.38;;;1.67;;
75620;SDS011;64574;48.506;-2.750;2024-02-23T18:41:05;4.60;;;1.58;;
75620;SDS011;64574;48.506;-2.750;2024-02-23T18:43:33;4.55;;;1.50;;
75620;SDS011;64574;48.506;-2.750;2024-02-23T18:46:00;6.57;;;2.35;;
75620;SDS011;64574;48.506;-2.750;2024-02-23T18:48:29;5.45;;;1.85;;
75620;SDS011;64574;48.506;-2.750;2024-02-23T18:50:56;4.03;;;1.33;;
75620;SDS011;64574;48.506;-2.750;2024-02-23T18:53:21;4.38;;;1.45;;
75620;SDS011;64574;48.506;-2.750;2024-02-23T18:55:48;3.60;;;1.10;;
75620;SDS011;64574;48.506;-2.750;2024-02-23T18:58:13;4.38;;;1.23;;
75620;SDS011;64574;48.506;-2.750;2024-02-23T19:00:39;5.18;;;1.30;;
75620;SDS011;64574;48.506;-2.750;2024-02-23T19:03:05;5.35;;;1.83;;
75620;SDS011;64574;48.506;-2.750;2024-02-23T19:05:31;4.43;;;1.50;;
75620;SDS011;64574;48.506;-2.750;2024-02-23T19:07:56;3.42;;;1.60;;
75620;SDS011;64574;48.506;-2.750;2024-02-23T19:10:22;3.83;;;1.77;;
75620;SDS011;64574;48.506;-2.750;2024-02-23T19:12:48;4.13;;;1.25;;
75620;SDS011;64574;48.506;-2.750;2024-02-23T19:15:13;5.40;;;1.40;;
75620;SDS011;64574;48.506;-2.750;2024-02-23T19:17:42;4.38;;;1.33;;
75620;SDS011;64574;48.506;-2.750;2024-02-23T19:20:07;5.40;;;1.40;;
75620;SDS011;64574;48.506;-2.750;2024-02-23T19:22:35;2.13;;;1.10;;
75620;SDS011;64574;48.506;-2.750;2024-02-23T19:27:28;3.63;;;1.38;;
75620;SDS011;64574;48.506;-2.750;2024-02-23T19:29:54;4.45;;;1.20;;
75620;SDS011;64574;48.506;-2.750;2024-02-23T19:32:20;4.38;;;1.20;;
75620;SDS011;64574;48.506;-2.750;2024-02-23T19:34:45;2.92;;;1.10;;
75620;SDS011;64574;48.506;-2.750;2024-02-23T19:37:11;4.03;;;1.20;;
75620;SDS011;64574;48.506;-2.750;2024-02-23T19:39:37;3.25;;;1.25;;
75620;SDS011;64574;48.506;-2.750;2024-02-23T19:42:02;3.30;;;1.20;;
75620;SDS011;64574;48.506;-2.750;2024-02-23T19:44:28;4.15;;;1.13;;
75620;SDS011;64574;48.506;-2.750;2024-02-23T19:46:55;2.45;;;1.17;;
75620;SDS011;64574;48.506;-2.750;2024-02-23T19:49:20;2.85;;;1.10;;
75620;SDS011;64574;48.506;-2.750;2024-02-23T19:51:46;3.83;;;0.90;;
75620;SDS011;64574;48.506;-2.750;2024-02-23T19:54:11;2.58;;;1.17;;
75620;SDS011;64574;48.506;-2.750;2024-02-23T19:56:37;3.38;;;1.23;;
75620;SDS011;64574;48.506;-2.750;2024-02-23T19:59:03;4.07;;;1.20;;
75620;SDS011;64574;48.506;-2.750;2024-02-23T20:01:28;4.68;;;1.13;;
75620;SDS011;64574;48.506;-2.750;2024-02-23T20:03:54;5.38;;;1.25;;
75620;SDS011;64574;48.506;-2.750;2024-02-23T20:06:19;3.90;;;1.35;;
75620;SDS011;64574;48.506;-2.750;2024-02-23T20:08:45;5.90;;;1.48;;
75620;SDS011;64574;48.506;-2.750;2024-02-23T20:11:11;4.63;;;1.25;;
75620;SDS011;64574;48.506;-2.750;2024-02-23T20:13:36;5.28;;;1.50;;
75620;SDS011;64574;48.506;-2.750;2024-02-23T20:16:02;4.60;;;1.40;;
75620;SDS011;64574;48.506;-2.750;2024-02-23T20:18:28;2.63;;;0.90;;
75620;SDS011;64574;48.506;-2.750;2024-02-23T20:20:54;4.18;;;1.08;;
75620;SDS011;64574;48.506;-2.750;2024-02-23T20:23:20;5.10;;;1.13;;
75620;SDS011;64574;48.506;-2.750;2024-02-23T20:25:45;7.43;;;1.40;;
75620;SDS011;64574;48.506;-2.750;2024-02-23T20:28:11;4.18;;;1.33;;
75620;SDS011;64574;48.506;-2.750;2024-02-23T20:30:37;4.60;;;1.73;;
75620;SDS011;64574;48.506;-2.750;2024-02-23T20:33:03;3.20;;;1.00;;
75620;SDS011;64574;48.506;-2.750;2024-02-23T20:35:28;4.03;;;1.10;;
75620;SDS011;64574;48.506;-2.750;2024-02-23T20:37:54;4.88;;;1.30;;
75620;SDS011;64574;48.506;-2.750;2024-02-23T20:40:23;1.77;;;0.70;;
75620;SDS011;64574;48.506;-2.750;2024-02-23T20:42:48;3.80;;;1.00;;
75620;SDS011;64574;48.506;-2.750;2024-02-23T20:45:15;3.38;;;0.85;;
75620;SDS011;64574;48.506;-2.750;2024-02-23T20:47:41;3.10;;;0.90;;
75620;SDS011;64574;48.506;-2.750;2024-02-23T20:50:07;5.15;;;1.20;;
75620;SDS011;64574;48.506;-2.750;2024-02-23T20:52:33;2.63;;;0.95;;
75620;SDS011;64574;48.506;-2.750;2024-02-23T20:54:59;3.47;;;1.20;;
75620;SDS011;64574;48.506;-2.750;2024-02-23T22:54:13;3.58;;;1.17;;
75620;SDS011;64574;48.506;-2.750;2024-02-23T22:56:38;2.72;;;0.80;;
75620;SDS011;64574;48.506;-2.750;2024-02-23T22:59:04;3.78;;;1.20;;
75620;SDS011;64574;48.506;-2.750;2024-02-23T23:01:42;4.33;;;1.30;;
75620;SDS011;64574;48.506;-2.750;2024-02-23T23:04:08;4.22;;;1.40;;
75620;SDS011;64574;48.506;-2.750;2024-02-23T23:06:33;4.90;;;1.02;;
75620;SDS011;64574;48.506;-2.750;2024-02-23T23:08:59;4.50;;;1.20;;
75620;SDS011;64574;48.506;-2.750;2024-02-23T23:11:25;3.65;;;1.05;;
